Currently 66°F in Simi Valley, California, USA
66°F
70°F / 66°F
4 mph W
0.00"
Thursday, September 23, 2021 3:53 AM PDT

Simi Valley, California Climate Summary
Typical May Day

Normal High:    75.7°F (24.3°C)
Normal Low:    53.1°F (11.7°C)
Average:    63.7°F (17.6°C)

Hour    Temperature    Wind Speed    Humidity
12:00 AM    58°F (14°C)    2 mph    72%
1:00 AM    57°F (14°C)    2 mph    73%
2:00 AM    57°F (14°C)    2 mph    74%
3:00 AM    56°F (13°C)    2 mph    75%
4:00 AM    55°F (13°C)    2 mph    76%
5:00 AM    55°F (13°C)    2 mph    77%
6:00 AM    54°F (12°C)    2 mph    78%
7:00 AM    55°F (13°C)    2 mph    79%
8:00 AM    59°F (15°C)    2 mph    76%
9:00 AM    63°F (17°C)    3 mph    70%
10:00 AM    66°F (19°C)    4 mph    62%
11:00 AM    70°F (21°C)    4 mph    56%
12:00 PM    72°F (22°C)    6 mph    52%
1:00 PM    73°F (23°C)    6 mph    50%
2:00 PM    74°F (23°C)    7 mph    50%
3:00 PM    74°F (23°C)    7 mph    49%
4:00 PM    73°F (23°C)    7 mph    49%
5:00 PM    72°F (22°C)    7 mph    51%
6:00 PM    71°F (22°C)    6 mph    53%
7:00 PM    69°F (20°C)    5 mph    56%
8:00 PM    65°F (18°C)    3 mph    63%
9:00 PM    62°F (17°C)    2 mph    68%
10:00 PM    60°F (16°C)    2 mph    70%
11:00 PM    59°F (15°C)    2 mph    72%
 

The Simi Valley, California weather pages are a service of WeatherCurrents.
Copyright ©2021  WeatherCurrents. All rights reserved. - Submit questions and comments - Privacy Policy